Butler, PA

5:21 PM EDT on July 24, 2016 (GMT -0400)
Butler County-Scholter | | Change Station
Active Advisory: Areal Flood Advisory Active Notice: Local Storm Report

Elev 1247 ft 40.78 °N, 79.95 °W | Updated 6 minutes ago

Partly Cloudy
Partly Cloudy
72 °F
Feels Like 72 °F
N
0
Wind Variable Wind from North

Today
High -- | Low -- °F
--% Chance of Precip.
Yesterday
High -- | Low -- °F
Precip. -- in
Pressure 30.06 in
Visibility 10.0 miles
Clouds Few 4200 ft
Dew Point 68 °F
Humidity 88%
Rainfall 2.44 in
Snow Depth Not available.
6:09 AM 8:42 PM
Waning Gibbous, 73% visible
METAR KBTP 242115Z AUTO 00000KT 10SM FEW042 22/20 A3006 RMK AO1 LTG DSNT E TSE02
Pressure 30.06 in
Visibility 10.0 miles
Clouds Few 4200 ft
Dew Point 68 °F
Humidity 88%
Rainfall 2.44 in
Snow Depth Not available.
6:09 AM 8:42 PM
Waning Gibbous, 73% visible
METAR KBTP 242115Z AUTO 00000KT 10SM FEW042 22/20 A3006 RMK AO1 LTG DSNT E TSE02

10-Day Weather Forecast

Almanac

Astronomy

Jul. 24, 2016 Rise Set
Actual Time
Civil Twilight
Nautical Twilight
Astronomical Twilight
Moon
Length of Visible Light
Length of Day
Tomorrow will be .
, % of the Moon is Illuminated

Today's Extremes

State Highs State Lows

Community

WunderPhotos

Upload Photos

1,927,191 photos uploaded!

WunderBlog® & News

Nearby

Air Quality

  Air Quality AQ Index Pollutant
Not available.

Snow Depth

Station Depth Elevation

Earthquake Activity

City Distance Mag. Time & Date
Minimum magnitude displayed is 2.5.

Coastal Water Temperatures

Place Temperature

Stations

Nearby Weather Stations

Station Location Temp. Windchill Dew Point Humidity Wind Precip. Elev Updated Type
                   

Watches & Warnings

Areal Flood Advisory
Issued: 5:17 PM EDT Jul. 24, 2016 – National Weather Service

... The Flood Advisory remains in effect until 715 PM EDT for
northwestern Butler and southeastern Lawrence counties...

At 512 PM EDT... between one and one half inches of rain fell over
the past hour as strong thunderstorms passed over the area. Although
additional rainfall is expected to be light... minor flooding
resulting from previous rain is likely ongoing.

Some locations that will experience flooding include...
New Castle... Slippery Rock... New Beaver... Harrisville...
Plain Grove township... Wampum... West Liberty... Harlansburg...
Portersville... Rose Point park... Moraine State Park...
cooper's lake campground and McConnells Mill.

Precautionary/preparedness actions...

A Flood Advisory means river or stream flows are elevated... or
ponding of water in urban or other areas is occurring or is imminent.


Lat... Lon 4116 8000 4116 7992 4095 7992 4087 8034
      4101 8033 4107 8009